Catàleg de serveis del Meteocat
Campanya meteocatpedra

Dades de l'estació automàtica Aitona

?
?
Resum diari 23:00 TU
Dades diàries de l'estació meteorològica
Temperatura mitjana 24.3 °C
Temperatura màxima 33.3 °C 15:24 TU
Temperatura mínima 15.8 °C 4:47 TU
Humitat relativa mitjana 55%
Precipitació acumulada 0.0 mm
Ratxa màxima del vent (2 m) 17.3 km/h - 239º 18:24 TU
Irradiació solar global 29.3 MJ/m2

El tram horari està expressat en Temps Universal (TU). Cal sumar una hora en horari d'hivern i dues en horari d'estiu per passar a l'hora oficial.

Aitona

Metadades estació meteorol´gica
Municipi Aitona
Comarca Segrià
Altitud 97 m
Data alta 12.03.1998
Estat actual Operativa
Dades de període
Període
TU
TM
°C
TX
°C
TN
°C
HRM
%
PPT
mm
VVM (2 m)
km/h
DVM (2 m)
graus
VVX (2 m)
km/h
RS
W/m2
00:00 - 00:30 21.0 21.3 20.6 60 0.0 5.4 225 10.8 0
00:30 - 01:00 20.4 20.6 20.2 61 0.0 4.0 218 10.1 0
01:00 - 01:30 19.7 20.1 19.5 63 0.0 2.9 209 8.6 0
01:30 - 02:00 19.1 19.4 18.8 65 0.0 2.5 203 6.5 0
02:00 - 02:30 18.7 18.9 18.5 66 0.0 2.5 191 6.5 0
02:30 - 03:00 18.3 18.4 18.0 67 0.0 2.9 202 7.2 0
03:00 - 03:30 17.6 17.9 16.9 71 0.0 1.8 223 4.3 0
03:30 - 04:00 16.6 16.8 16.5 77 0.0 0.7 220 4.0 0
04:00 - 04:30 16.1 16.5 15.9 81 0.0 0.7 223 3.2 0
04:30 - 05:00 16.0 16.3 15.8 82 0.0 0.7 220 3.6 8
05:00 - 05:30 16.3 16.6 16.2 81 0.0 1.8 220 6.1 33
05:30 - 06:00 17.3 18.2 16.7 79 0.0 2.2 226 5.8 98
06:00 - 06:30 18.8 19.8 18.0 74 0.0 3.2 199 7.9 184
06:30 - 07:00 20.4 21.0 19.9 68 0.0 4.0 197 10.4 306
07:00 - 07:30 21.5 21.9 21.0 64 0.0 4.0 231 11.2 402
07:30 - 08:00 22.5 22.9 22.0 62 0.0 3.6 251 10.4 496
08:00 - 08:30 23.1 23.4 22.6 61 0.0 4.3 227 13.0 585
08:30 - 09:00 23.8 24.2 23.3 60 0.0 4.7 210 11.9 669
09:00 - 09:30 24.8 25.6 24.1 58 0.0 4.0 206 11.5 739
09:30 - 10:00 25.6 26.0 25.0 56 0.0 4.3 203 11.5 805
10:00 - 10:30 27.1 28.0 26.1 52 0.0 3.2 265 10.4 858
10:30 - 11:00 27.6 28.7 27.1 51 0.0 3.6 221 10.1 906
11:00 - 11:30 28.4 29.3 27.9 49 0.0 3.6 221 10.8 936
11:30 - 12:00 29.0 29.4 28.7 45 0.0 4.3 230 14.4 955
12:00 - 12:30 29.8 30.3 29.2 42 0.0 3.6 220 10.8 956
12:30 - 13:00 30.1 30.8 29.8 42 0.0 4.7 217 14.4 948
13:00 - 13:30 31.2 32.2 30.5 39 0.0 4.7 263 13.7 920
13:30 - 14:00 31.1 31.5 30.7 40 0.0 4.3 215 13.7 885
14:00 - 14:30 31.4 32.1 31.0 39 0.0 4.7 228 13.7 835
14:30 - 15:00 32.1 32.8 31.6 37 0.0 3.2 225 11.5 768
15:00 - 15:30 32.4 33.3 31.8 36 0.0 3.2 217 10.4 691
15:30 - 16:00 32.3 32.8 31.9 35 0.0 4.3 222 11.9 612
16:00 - 16:30 32.1 32.4 31.8 32 0.0 4.7 222 15.1 529
16:30 - 17:00 32.0 32.2 31.8 29 0.0 5.8 232 14.8 440
17:00 - 17:30 31.8 31.9 31.6 28 0.0 4.7 238 13.7 344
17:30 - 18:00 30.8 31.5 29.8 32 0.0 4.0 207 11.5 231
18:00 - 18:30 29.3 29.8 29.0 35 0.0 4.3 215 17.3 146
18:30 - 19:00 29.5 29.9 28.4 30 0.0 4.7 241 12.2 37
19:00 - 19:30 27.2 28.3 25.9 37 0.0 2.9 210 7.2 8
19:30 - 20:00 25.4 26.2 24.4 43 0.0 2.2 216 5.4 0
20:00 - 20:30 23.1 24.3 21.6 53 0.0 1.1 220 2.9 0
20:30 - 21:00 20.4 21.3 19.9 70 0.0 0.4 189 2.9 0
21:00 - 21:30 19.5 19.9 19.1 75 0.0 0.4 210 2.5 0
21:30 - 22:00 19.2 19.9 18.5 73 0.0 0.0 195 1.1 0
22:00 - 22:30 19.5 21.6 18.5 68 0.0 1.1 186 6.5 0
22:30 - 23:00 22.3 22.6 21.3 64 0.0 3.2 196 9.7 0
23:00 - 23:30 20.3 21.1 20.0 69 0.0 2.2 214 4.3 0

Les dades en taronja només han passat un control de qualitat automàtic. Resta pendent la seva validació definitiva.